sensor_id;sensor_type;location;lat;lon;timestamp;pressure;altitude;pressure_sealevel;temperature;humidity
71791;BME280;59638;52.126;5.434;2023-05-08T00:02:17;102221.53;;;11.14;100.00
71791;BME280;59638;52.126;5.434;2023-05-08T00:04:43;102223.03;;;11.19;100.00
71791;BME280;59638;52.126;5.434;2023-05-08T00:07:10;102230.41;;;11.13;100.00
71791;BME280;59638;52.126;5.434;2023-05-08T00:09:36;102233.78;;;11.15;100.00
71791;BME280;59638;52.126;5.434;2023-05-08T00:12:03;102223.56;;;11.11;100.00
71791;BME280;59638;52.126;5.434;2023-05-08T00:14:30;102222.91;;;11.07;100.00
71791;BME280;59638;52.126;5.434;2023-05-08T00:16:56;102227.47;;;11.05;100.00
71791;BME280;59638;52.126;5.434;2023-05-08T00:19:22;102218.81;;;11.03;100.00
71791;BME280;59638;52.126;5.434;2023-05-08T00:21:49;102217.34;;;10.99;100.00
71791;BME280;59638;52.126;5.434;2023-05-08T00:24:15;102209.63;;;10.96;100.00
71791;BME280;59638;52.126;5.434;2023-05-08T00:26:42;102217.75;;;10.93;100.00
71791;BME280;59638;52.126;5.434;2023-05-08T00:29:09;102210.97;;;10.89;100.00
71791;BME280;59638;52.126;5.434;2023-05-08T00:31:36;102204.00;;;10.88;100.00
71791;BME280;59638;52.126;5.434;2023-05-08T00:34:02;102203.28;;;10.86;100.00
71791;BME280;59638;52.126;5.434;2023-05-08T00:36:29;102211.44;;;10.83;100.00
71791;BME280;59638;52.126;5.434;2023-05-08T00:38:55;102206.56;;;10.77;100.00
71791;BME280;59638;52.126;5.434;2023-05-08T00:41:22;102203.16;;;10.75;100.00
71791;BME280;59638;52.126;5.434;2023-05-08T00:43:48;102209.72;;;10.69;100.00
71791;BME280;59638;52.126;5.434;2023-05-08T00:46:14;102204.88;;;10.63;100.00
71791;BME280;59638;52.126;5.434;2023-05-08T00:48:42;102198.94;;;10.59;100.00
71791;BME280;59638;52.126;5.434;2023-05-08T00:51:09;102199.25;;;10.55;100.00
71791;BME280;59638;52.126;5.434;2023-05-08T00:53:39;102201.88;;;10.55;100.00
71791;BME280;59638;52.126;5.434;2023-05-08T00:56:10;102209.91;;;10.53;100.00
71791;BME280;59638;52.126;5.434;2023-05-08T00:58:38;102204.88;;;10.50;100.00
71791;BME280;59638;52.126;5.434;2023-05-08T01:01:05;102208.66;;;10.46;100.00
71791;BME280;59638;52.126;5.434;2023-05-08T01:03:33;102201.78;;;10.44;100.00
71791;BME280;59638;52.126;5.434;2023-05-08T01:06:02;102205.47;;;10.41;100.00
71791;BME280;59638;52.126;5.434;2023-05-08T01:08:30;102204.00;;;10.37;100.00
71791;BME280;59638;52.126;5.434;2023-05-08T01:16:30;102208.44;;;10.22;100.00
71791;BME280;59638;52.126;5.434;2023-05-08T01:22:52;102212.78;;;10.11;100.00
71791;BME280;59638;52.126;5.434;2023-05-08T01:33:34;102204.44;;;9.90;100.00
71791;BME280;59638;52.126;5.434;2023-05-08T01:36:19;102215.00;;;9.90;100.00
71791;BME280;59638;52.126;5.434;2023-05-08T01:38:56;102217.56;;;9.91;100.00
71791;BME280;59638;52.126;5.434;2023-05-08T01:41:28;102219.25;;;9.92;100.00
71791;BME280;59638;52.126;5.434;2023-05-08T01:44:16;102207.63;;;9.95;100.00
71791;BME280;59638;52.126;5.434;2023-05-08T01:46:47;102215.66;;;9.93;100.00
71791;BME280;59638;52.126;5.434;2023-05-08T01:49:25;102215.75;;;9.92;100.00
71791;BME280;59638;52.126;5.434;2023-05-08T01:52:16;102213.13;;;9.92;100.00
71791;BME280;59638;52.126;5.434;2023-05-08T01:55:11;102214.16;;;9.89;100.00
71791;BME280;59638;52.126;5.434;2023-05-08T01:57:46;102216.78;;;9.89;100.00
71791;BME280;59638;52.126;5.434;2023-05-08T02:00:15;102218.78;;;9.86;100.00
71791;BME280;59638;52.126;5.434;2023-05-08T02:02:43;102214.66;;;9.81;100.00
71791;BME280;59638;52.126;5.434;2023-05-08T02:05:11;102225.31;;;9.80;100.00
71791;BME280;59638;52.126;5.434;2023-05-08T02:07:40;102222.47;;;9.83;100.00
71791;BME280;59638;52.126;5.434;2023-05-08T02:10:07;102230.63;;;9.93;100.00
71791;BME280;59638;52.126;5.434;2023-05-08T02:12:35;102231.25;;;9.96;100.00
71791;BME280;59638;52.126;5.434;2023-05-08T02:15:03;102229.59;;;9.95;100.00
71791;BME280;59638;52.126;5.434;2023-05-08T02:17:31;102223.91;;;10.01;100.00
71791;BME280;59638;52.126;5.434;2023-05-08T02:20:00;102231.81;;;10.01;100.00
71791;BME280;59638;52.126;5.434;2023-05-08T02:22:29;102234.66;;;9.98;100.00
71791;BME280;59638;52.126;5.434;2023-05-08T02:24:57;102226.00;;;9.96;100.00
71791;BME280;59638;52.126;5.434;2023-05-08T02:27:26;102223.91;;;10.01;100.00
71791;BME280;59638;52.126;5.434;2023-05-08T02:29:53;102230.78;;;10.04;100.00
71791;BME280;59638;52.126;5.434;2023-05-08T02:32:22;102235.00;;;10.06;100.00
71791;BME280;59638;52.126;5.434;2023-05-08T02:34:51;102230.13;;;10.00;100.00
71791;BME280;59638;52.126;5.434;2023-05-08T02:37:29;102238.72;;;10.04;100.00
71791;BME280;59638;52.126;5.434;2023-05-08T02:39:57;102237.75;;;10.05;100.00
71791;BME280;59638;52.126;5.434;2023-05-08T02:42:24;102239.56;;;10.04;100.00
71791;BME280;59638;52.126;5.434;2023-05-08T02:44:50;102246.81;;;10.01;100.00
71791;BME280;59638;52.126;5.434;2023-05-08T02:47:24;102240.69;;;10.00;100.00
71791;BME280;59638;52.126;5.434;2023-05-08T02:52:55;102238.44;;;9.94;100.00
71791;BME280;59638;52.126;5.434;2023-05-08T02:55:34;102236.47;;;9.98;100.00
71791;BME280;59638;52.126;5.434;2023-05-08T02:58:19;102230.03;;;10.02;100.00
71791;BME280;59638;52.126;5.434;2023-05-08T03:01:02;102232.56;;;10.03;100.00
71791;BME280;59638;52.126;5.434;2023-05-08T03:03:49;102228.16;;;10.04;100.00
71791;BME280;59638;52.126;5.434;2023-05-08T03:06:20;102224.97;;;9.99;100.00
71791;BME280;59638;52.126;5.434;2023-05-08T03:08:50;102225.47;;;9.91;100.00
71791;BME280;59638;52.126;5.434;2023-05-08T03:11:21;102223.22;;;9.85;100.00
71791;BME280;59638;52.126;5.434;2023-05-08T03:13:50;102224.34;;;9.81;100.00
71791;BME280;59638;52.126;5.434;2023-05-08T03:16:22;102224.66;;;9.76;100.00
71791;BME280;59638;52.126;5.434;2023-05-08T03:18:56;102219.13;;;9.67;100.00
71791;BME280;59638;52.126;5.434;2023-05-08T03:21:25;102220.56;;;9.58;100.00
71791;BME280;59638;52.126;5.434;2023-05-08T03:23:54;102212.72;;;9.57;100.00
71791;BME280;59638;52.126;5.434;2023-05-08T03:26:22;102214.84;;;9.51;100.00
71791;BME280;59638;52.126;5.434;2023-05-08T03:28:50;102215.78;;;9.36;100.00
71791;BME280;59638;52.126;5.434;2023-05-08T03:31:18;102219.75;;;9.29;100.00
71791;BME280;59638;52.126;5.434;2023-05-08T03:33:51;102220.91;;;9.25;100.00
71791;BME280;59638;52.126;5.434;2023-05-08T03:36:18;102218.44;;;9.22;100.00
71791;BME280;59638;52.126;5.434;2023-05-08T03:38:45;102225.88;;;9.15;100.00
71791;BME280;59638;52.126;5.434;2023-05-08T03:41:12;102221.94;;;9.08;100.00
71791;BME280;59638;52.126;5.434;2023-05-08T03:43:39;102231.81;;;9.05;100.00
71791;BME280;59638;52.126;5.434;2023-05-08T03:46:06;102217.03;;;9.02;100.00
71791;BME280;59638;52.126;5.434;2023-05-08T03:48:34;102211.75;;;9.02;100.00
71791;BME280;59638;52.126;5.434;2023-05-08T03:51:02;102209.34;;;8.99;100.00
71791;BME280;59638;52.126;5.434;2023-05-08T03:53:30;102209.59;;;8.94;100.00
71791;BME280;59638;52.126;5.434;2023-05-08T03:55:58;102207.72;;;8.96;100.00
71791;BME280;59638;52.126;5.434;2023-05-08T04:01:20;102213.75;;;8.98;100.00
71791;BME280;59638;52.126;5.434;2023-05-08T04:04:01;102210.56;;;8.93;100.00
71791;BME280;59638;52.126;5.434;2023-05-08T04:06:39;102211.56;;;8.91;100.00
71791;BME280;59638;52.126;5.434;2023-05-08T04:09:54;102216.94;;;8.89;100.00
71791;BME280;59638;52.126;5.434;2023-05-08T04:15:35;102218.16;;;8.84;100.00
71791;BME280;59638;52.126;5.434;2023-05-08T04:18:07;102224.25;;;8.84;100.00
71791;BME280;59638;52.126;5.434;2023-05-08T04:20:38;102225.97;;;8.85;100.00
71791;BME280;59638;52.126;5.434;2023-05-08T04:23:07;102225.97;;;8.85;100.00
71791;BME280;59638;52.126;5.434;2023-05-08T04:25:35;102220.50;;;8.88;100.00
71791;BME280;59638;52.126;5.434;2023-05-08T04:28:05;102225.59;;;8.91;100.00
71791;BME280;59638;52.126;5.434;2023-05-08T04:30:32;102224.47;;;8.95;100.00
71791;BME280;59638;52.126;5.434;2023-05-08T04:32:59;102225.97;;;8.99;100.00
71791;BME280;59638;52.126;5.434;2023-05-08T04:35:28;102223.16;;;9.03;100.00
71791;BME280;59638;52.126;5.434;2023-05-08T04:37:54;102224.47;;;9.10;100.00
71791;BME280;59638;52.126;5.434;2023-05-08T04:40:21;102231.25;;;9.14;100.00
71791;BME280;59638;52.126;5.434;2023-05-08T04:42:48;102224.75;;;9.19;100.00
71791;BME280;59638;52.126;5.434;2023-05-08T04:45:14;102234.91;;;9.25;100.00
71791;BME280;59638;52.126;5.434;2023-05-08T04:47:41;102242.44;;;9.32;100.00
71791;BME280;59638;52.126;5.434;2023-05-08T04:50:07;102238.38;;;9.40;100.00
71791;BME280;59638;52.126;5.434;2023-05-08T04:52:34;102239.91;;;9.44;100.00
71791;BME280;59638;52.126;5.434;2023-05-08T04:55:00;102235.16;;;9.49;100.00
71791;BME280;59638;52.126;5.434;2023-05-08T04:57:27;102235.53;;;9.58;100.00
71791;BME280;59638;52.126;5.434;2023-05-08T04:59:53;102233.25;;;9.66;100.00
71791;BME280;59638;52.126;5.434;2023-05-08T05:02:20;102253.19;;;9.70;100.00
71791;BME280;59638;52.126;5.434;2023-05-08T05:04:46;102248.31;;;9.78;100.00
71791;BME280;59638;52.126;5.434;2023-05-08T05:07:13;102253.25;;;9.82;100.00
71791;BME280;59638;52.126;5.434;2023-05-08T05:09:39;102245.63;;;9.92;100.00
71791;BME280;59638;52.126;5.434;2023-05-08T05:12:06;102248.19;;;10.06;100.00
71791;BME280;59638;52.126;5.434;2023-05-08T05:14:33;102252.09;;;10.28;100.00
71791;BME280;59638;52.126;5.434;2023-05-08T05:17:00;102258.00;;;10.58;100.00
71791;BME280;59638;52.126;5.434;2023-05-08T05:19:26;102258.53;;;10.89;100.00
71791;BME280;59638;52.126;5.434;2023-05-08T05:21:52;102262.13;;;11.01;100.00
71791;BME280;59638;52.126;5.434;2023-05-08T05:24:19;102265.72;;;11.12;100.00
71791;BME280;59638;52.126;5.434;2023-05-08T05:26:45;102256.97;;;11.25;100.00
71791;BME280;59638;52.126;5.434;2023-05-08T05:29:12;102263.38;;;11.46;100.00
71791;BME280;59638;52.126;5.434;2023-05-08T05:31:38;102260.00;;;11.44;100.00
71791;BME280;59638;52.126;5.434;2023-05-08T05:34:04;102266.53;;;11.51;100.00
71791;BME280;59638;52.126;5.434;2023-05-08T05:36:31;102264.72;;;11.64;100.00
71791;BME280;59638;52.126;5.434;2023-05-08T05:38:57;102255.13;;;11.75;100.00
71791;BME280;59638;52.126;5.434;2023-05-08T05:41:24;102262.97;;;11.89;100.00
71791;BME280;59638;52.126;5.434;2023-05-08T05:43:50;102263.88;;;12.01;100.00
71791;BME280;59638;52.126;5.434;2023-05-08T05:46:17;102265.94;;;12.08;100.00
71791;BME280;59638;52.126;5.434;2023-05-08T05:48:44;102266.25;;;12.16;100.00
71791;BME280;59638;52.126;5.434;2023-05-08T05:51:10;102268.00;;;12.29;100.00
71791;BME280;59638;52.126;5.434;2023-05-08T05:53:37;102267.44;;;12.47;100.00
71791;BME280;59638;52.126;5.434;2023-05-08T05:56:04;102266.44;;;12.72;100.00
71791;BME280;59638;52.126;5.434;2023-05-08T05:58:30;102272.06;;;13.14;100.00
71791;BME280;59638;52.126;5.434;2023-05-08T06:00:57;102273.16;;;13.45;100.00
71791;BME280;59638;52.126;5.434;2023-05-08T06:03:26;102278.84;;;13.63;100.00
71791;BME280;59638;52.126;5.434;2023-05-08T06:05:53;102269.16;;;13.73;100.00
71791;BME280;59638;52.126;5.434;2023-05-08T06:08:21;102276.88;;;13.65;100.00
71791;BME280;59638;52.126;5.434;2023-05-08T06:10:48;102271.09;;;13.82;100.00
71791;BME280;59638;52.126;5.434;2023-05-08T06:13:14;102268.31;;;14.16;100.00
71791;BME280;59638;52.126;5.434;2023-05-08T06:15:41;102271.22;;;14.45;100.00
71791;BME280;59638;52.126;5.434;2023-05-08T06:18:07;102270.56;;;14.64;100.00
71791;BME280;59638;52.126;5.434;2023-05-08T06:20:36;102272.22;;;14.65;100.00
71791;BME280;59638;52.126;5.434;2023-05-08T06:23:02;102268.63;;;14.66;100.00
71791;BME280;59638;52.126;5.434;2023-05-08T06:25:29;102268.94;;;14.73;100.00
71791;BME280;59638;52.126;5.434;2023-05-08T06:27:56;102269.78;;;14.73;100.00
71791;BME280;59638;52.126;5.434;2023-05-08T06:30:22;102271.94;;;14.79;100.00
71791;BME280;59638;52.126;5.434;2023-05-08T06:32:49;102274.19;;;14.63;100.00
71791;BME280;59638;52.126;5.434;2023-05-08T06:35:15;102270.69;;;14.83;100.00
71791;BME280;59638;52.126;5.434;2023-05-08T06:37:45;102283.94;;;15.04;100.00
71791;BME280;59638;52.126;5.434;2023-05-08T06:40:12;102281.25;;;15.25;100.00
71791;BME280;59638;52.126;5.434;2023-05-08T06:42:39;102278.41;;;15.17;100.00
71791;BME280;59638;52.126;5.434;2023-05-08T06:45:07;102282.16;;;15.35;100.00
71791;BME280;59638;52.126;5.434;2023-05-08T06:47:34;102276.00;;;15.44;100.00
71791;BME280;59638;52.126;5.434;2023-05-08T06:50:01;102280.66;;;15.73;100.00
71791;BME280;59638;52.126;5.434;2023-05-08T06:52:27;102275.75;;;15.78;100.00
71791;BME280;59638;52.126;5.434;2023-05-08T06:54:53;102282.31;;;15.74;100.00
71791;BME280;59638;52.126;5.434;2023-05-08T06:57:20;102273.41;;;16.23;100.00
71791;BME280;59638;52.126;5.434;2023-05-08T06:59:46;102281.44;;;17.19;100.00
71791;BME280;59638;52.126;5.434;2023-05-08T07:02:12;102272.22;;;17.68;100.00
71791;BME280;59638;52.126;5.434;2023-05-08T07:04:42;102277.63;;;17.58;100.00
71791;BME280;59638;52.126;5.434;2023-05-08T07:07:09;102275.78;;;17.31;99.70
71791;BME280;59638;52.126;5.434;2023-05-08T07:09:36;102285.91;;;16.91;100.00
71791;BME280;59638;52.126;5.434;2023-05-08T07:12:03;102286.31;;;16.86;100.00
71791;BME280;59638;52.126;5.434;2023-05-08T07:14:29;102283.72;;;17.13;100.00
71791;BME280;59638;52.126;5.434;2023-05-08T07:16:55;102280.28;;;17.31;100.00
71791;BME280;59638;52.126;5.434;2023-05-08T07:19:23;102284.13;;;17.19;100.00
71791;BME280;59638;52.126;5.434;2023-05-08T07:21:50;102286.22;;;17.25;100.00
71791;BME280;59638;52.126;5.434;2023-05-08T07:24:16;102282.81;;;17.23;100.00
71791;BME280;59638;52.126;5.434;2023-05-08T07:26:43;102285.03;;;16.90;100.00
71791;BME280;59638;52.126;5.434;2023-05-08T07:29:09;102277.75;;;16.53;100.00
71791;BME280;59638;52.126;5.434;2023-05-08T07:31:38;102279.03;;;16.30;100.00
71791;BME280;59638;52.126;5.434;2023-05-08T07:34:06;102274.97;;;16.26;100.00
71791;BME280;59638;52.126;5.434;2023-05-08T07:36:32;102280.00;;;16.68;100.00
71791;BME280;59638;52.126;5.434;2023-05-08T07:38:59;102274.53;;;16.79;100.00
71791;BME280;59638;52.126;5.434;2023-05-08T07:41:25;102264.00;;;16.68;100.00
71791;BME280;59638;52.126;5.434;2023-05-08T07:43:51;102269.47;;;16.76;100.00
71791;BME280;59638;52.126;5.434;2023-05-08T07:46:18;102274.50;;;16.69;100.00
71791;BME280;59638;52.126;5.434;2023-05-08T07:48:45;102265.84;;;16.48;100.00
71791;BME280;59638;52.126;5.434;2023-05-08T07:51:12;102273.84;;;16.38;100.00
71791;BME280;59638;52.126;5.434;2023-05-08T07:53:38;102271.31;;;16.27;100.00
71791;BME280;59638;52.126;5.434;2023-05-08T07:56:05;102271.31;;;16.27;100.00
71791;BME280;59638;52.126;5.434;2023-05-08T07:58:32;102269.66;;;16.45;100.00
71791;BME280;59638;52.126;5.434;2023-05-08T08:00:58;102273.66;;;16.69;100.00
71791;BME280;59638;52.126;5.434;2023-05-08T08:03:25;102277.84;;;17.00;100.00
71791;BME280;59638;52.126;5.434;2023-05-08T08:05:51;102271.41;;;16.83;100.00
71791;BME280;59638;52.126;5.434;2023-05-08T08:08:17;102272.50;;;17.00;100.00
71791;BME280;59638;52.126;5.434;2023-05-08T08:10:44;102279.44;;;17.30;100.00
71791;BME280;59638;52.126;5.434;2023-05-08T08:13:10;102269.22;;;17.53;100.00
71791;BME280;59638;52.126;5.434;2023-05-08T08:15:37;102273.66;;;17.72;100.00
71791;BME280;59638;52.126;5.434;2023-05-08T08:18:03;102282.06;;;17.67;100.00
71791;BME280;59638;52.126;5.434;2023-05-08T08:20:30;102291.47;;;17.44;100.00
71791;BME280;59638;52.126;5.434;2023-05-08T08:22:56;102286.78;;;17.19;100.00
71791;BME280;59638;52.126;5.434;2023-05-08T08:25:23;102291.31;;;17.08;100.00
71791;BME280;59638;52.126;5.434;2023-05-08T08:27:49;102282.31;;;17.09;100.00
71791;BME280;59638;52.126;5.434;2023-05-08T08:30:16;102282.59;;;17.06;100.00
71791;BME280;59638;52.126;5.434;2023-05-08T08:32:45;102270.44;;;16.94;100.00
71791;BME280;59638;52.126;5.434;2023-05-08T08:35:12;102276.44;;;17.06;100.00
71791;BME280;59638;52.126;5.434;2023-05-08T08:37:39;102269.38;;;17.15;100.00
71791;BME280;59638;52.126;5.434;2023-05-08T08:40:06;102272.38;;;17.39;100.00
71791;BME280;59638;52.126;5.434;2023-05-08T08:42:33;102268.69;;;17.50;100.00
71791;BME280;59638;52.126;5.434;2023-05-08T08:44:59;102263.22;;;17.69;100.00
71791;BME280;59638;52.126;5.434;2023-05-08T08:47:27;102263.06;;;17.98;99.73
71791;BME280;59638;52.126;5.434;2023-05-08T08:50:01;102262.31;;;18.24;97.89
71791;BME280;59638;52.126;5.434;2023-05-08T08:52:40;102267.97;;;18.20;98.10
71791;BME280;59638;52.126;5.434;2023-05-08T08:55:10;102260.72;;;18.74;96.69
71791;BME280;59638;52.126;5.434;2023-05-08T08:57:55;102265.25;;;19.00;96.55
71791;BME280;59638;52.126;5.434;2023-05-08T09:00:27;102266.19;;;18.47;100.00
71791;BME280;59638;52.126;5.434;2023-05-08T09:02:55;102273.53;;;18.45;100.00
71791;BME280;59638;52.126;5.434;2023-05-08T09:05:22;102269.53;;;18.67;98.63
71791;BME280;59638;52.126;5.434;2023-05-08T09:07:53;102273.34;;;18.82;95.84
71791;BME280;59638;52.126;5.434;2023-05-08T09:10:20;102268.25;;;19.31;95.92
71791;BME280;59638;52.126;5.434;2023-05-08T09:12:48;102263.34;;;20.11;89.75
71791;BME280;59638;52.126;5.434;2023-05-08T09:15:15;102262.38;;;20.28;93.20
71791;BME280;59638;52.126;5.434;2023-05-08T09:17:41;102259.16;;;22.83;80.61
71791;BME280;59638;52.126;5.434;2023-05-08T09:20:08;102261.34;;;23.32;78.29
71791;BME280;59638;52.126;5.434;2023-05-08T09:22:37;102265.66;;;22.59;75.64
71791;BME280;59638;52.126;5.434;2023-05-08T09:25:04;102268.84;;;21.55;77.06
71791;BME280;59638;52.126;5.434;2023-05-08T09:27:30;102262.50;;;21.00;81.08
71791;BME280;59638;52.126;5.434;2023-05-08T09:29:58;102270.09;;;20.48;91.69
71791;BME280;59638;52.126;5.434;2023-05-08T09:32:26;102267.84;;;20.02;89.86
71791;BME280;59638;52.126;5.434;2023-05-08T09:34:53;102269.81;;;19.76;90.32
71791;BME280;59638;52.126;5.434;2023-05-08T09:37:20;102267.88;;;20.10;91.12
71791;BME280;59638;52.126;5.434;2023-05-08T09:39:46;102262.03;;;20.64;85.22
71791;BME280;59638;52.126;5.434;2023-05-08T09:42:13;102249.28;;;20.66;85.94
71791;BME280;59638;52.126;5.434;2023-05-08T09:44:53;102263.00;;;20.38;85.66
71791;BME280;59638;52.126;5.434;2023-05-08T09:47:23;102255.28;;;20.11;85.15
71791;BME280;59638;52.126;5.434;2023-05-08T09:50:07;102260.00;;;20.01;87.20
71791;BME280;59638;52.126;5.434;2023-05-08T09:52:35;102279.53;;;19.77;89.39
71791;BME280;59638;52.126;5.434;2023-05-08T09:55:09;102265.59;;;19.65;89.96
71791;BME280;59638;52.126;5.434;2023-05-08T09:57:38;102271.66;;;19.75;88.76
71791;BME280;59638;52.126;5.434;2023-05-08T10:00:12;102270.78;;;19.67;91.68
71791;BME280;59638;52.126;5.434;2023-05-08T10:02:40;102269.69;;;19.51;88.60
71791;BME280;59638;52.126;5.434;2023-05-08T10:07:57;102266.16;;;19.43;87.59
71791;BME280;59638;52.126;5.434;2023-05-08T10:10:28;102272.13;;;19.28;89.54
71791;BME280;59638;52.126;5.434;2023-05-08T10:12:57;102276.47;;;19.29;90.48
71791;BME280;59638;52.126;5.434;2023-05-08T10:15:27;102273.81;;;19.38;88.84
71791;BME280;59638;52.126;5.434;2023-05-08T10:18:01;102272.16;;;19.37;90.91
71791;BME280;59638;52.126;5.434;2023-05-08T10:20:29;102273.19;;;19.44;91.94
71791;BME280;59638;52.126;5.434;2023-05-08T10:22:57;102271.13;;;19.38;91.22
71791;BME280;59638;52.126;5.434;2023-05-08T10:25:24;102271.75;;;19.23;91.29
71791;BME280;59638;52.126;5.434;2023-05-08T10:28:05;102272.63;;;19.32;92.39
71791;BME280;59638;52.126;5.434;2023-05-08T10:30:33;102270.72;;;19.16;91.01
71791;BME280;59638;52.126;5.434;2023-05-08T10:33:02;102272.59;;;18.98;93.00
71791;BME280;59638;52.126;5.434;2023-05-08T10:35:28;102269.66;;;19.09;92.52
71791;BME280;59638;52.126;5.434;2023-05-08T10:37:57;102273.31;;;19.08;92.68
71791;BME280;59638;52.126;5.434;2023-05-08T10:40:24;102267.34;;;19.14;92.83
71791;BME280;59638;52.126;5.434;2023-05-08T10:42:50;102274.78;;;19.28;91.85
71791;BME280;59638;52.126;5.434;2023-05-08T10:45:17;102270.88;;;19.49;90.65
71791;BME280;59638;52.126;5.434;2023-05-08T10:48:03;102263.00;;;20.06;90.32
71791;BME280;59638;52.126;5.434;2023-05-08T10:51:00;102265.00;;;21.02;84.83
71791;BME280;59638;52.126;5.434;2023-05-08T10:53:45;102265.03;;;21.80;77.71
71791;BME280;59638;52.126;5.434;2023-05-08T10:56:14;102263.81;;;21.60;80.11
71791;BME280;59638;52.126;5.434;2023-05-08T10:58:40;102264.94;;;21.26;79.87
71791;BME280;59638;52.126;5.434;2023-05-08T11:03:44;102267.06;;;20.51;84.68
71791;BME280;59638;52.126;5.434;2023-05-08T11:06:13;102264.72;;;20.56;82.21
71791;BME280;59638;52.126;5.434;2023-05-08T11:08:49;102267.75;;;20.45;82.96
71791;BME280;59638;52.126;5.434;2023-05-08T11:11:25;102261.06;;;20.49;83.40
71791;BME280;59638;52.126;5.434;2023-05-08T11:13:57;102262.69;;;20.25;86.28
71791;BME280;59638;52.126;5.434;2023-05-08T11:22:20;102261.63;;;19.43;87.49
71791;BME280;59638;52.126;5.434;2023-05-08T11:27:17;102245.88;;;19.82;85.16
71791;BME280;59638;52.126;5.434;2023-05-08T11:29:44;102245.88;;;19.82;82.91
71791;BME280;59638;52.126;5.434;2023-05-08T11:32:10;102243.84;;;19.68;85.37
71791;BME280;59638;52.126;5.434;2023-05-08T11:37:11;102233.16;;;19.85;83.29
71791;BME280;59638;52.126;5.434;2023-05-08T11:39:41;102227.66;;;20.10;84.43
71791;BME280;59638;52.126;5.434;2023-05-08T11:45:05;102235.78;;;21.07;79.15
71791;BME280;59638;52.126;5.434;2023-05-08T11:47:40;102227.78;;;22.23;76.03
71791;BME280;59638;52.126;5.434;2023-05-08T11:50:09;102231.59;;;22.06;74.41
71791;BME280;59638;52.126;5.434;2023-05-08T11:52:37;102223.44;;;21.68;76.89
71791;BME280;59638;52.126;5.434;2023-05-08T11:55:09;102221.94;;;21.34;76.79
71791;BME280;59638;52.126;5.434;2023-05-08T11:57:36;102224.34;;;21.13;77.87
71791;BME280;59638;52.126;5.434;2023-05-08T12:00:10;102223.78;;;20.70;80.77
71791;BME280;59638;52.126;5.434;2023-05-08T12:02:39;102219.97;;;20.56;81.12
71791;BME280;59638;52.126;5.434;2023-05-08T12:05:06;102220.78;;;20.41;81.48
71791;BME280;59638;52.126;5.434;2023-05-08T12:07:44;102228.66;;;20.18;82.88
71791;BME280;59638;52.126;5.434;2023-05-08T12:10:12;102227.47;;;20.04;83.58
71791;BME280;59638;52.126;5.434;2023-05-08T12:12:41;102220.09;;;20.38;82.70
71791;BME280;59638;52.126;5.434;2023-05-08T12:15:09;102223.03;;;21.09;78.35
71791;BME280;59638;52.126;5.434;2023-05-08T12:17:36;102218.50;;;21.49;78.80
71791;BME280;59638;52.126;5.434;2023-05-08T12:20:17;102213.91;;;21.88;78.80
71791;BME280;59638;52.126;5.434;2023-05-08T12:22:51;102215.19;;;21.69;77.61
71791;BME280;59638;52.126;5.434;2023-05-08T12:25:18;102219.59;;;21.23;77.70
71791;BME280;59638;52.126;5.434;2023-05-08T12:27:45;102208.53;;;21.26;77.94
71791;BME280;59638;52.126;5.434;2023-05-08T12:30:12;102207.75;;;22.25;74.31
71791;BME280;59638;52.126;5.434;2023-05-08T12:32:40;102203.00;;;22.13;71.98
71791;BME280;59638;52.126;5.434;2023-05-08T12:35:08;102209.94;;;21.76;77.03
71791;BME280;59638;52.126;5.434;2023-05-08T12:37:35;102214.72;;;21.89;74.48
71791;BME280;59638;52.126;5.434;2023-05-08T12:40:03;102209.34;;;21.66;74.02
71791;BME280;59638;52.126;5.434;2023-05-08T12:42:46;102209.88;;;21.30;77.05
71791;BME280;59638;52.126;5.434;2023-05-08T12:45:20;102212.56;;;21.22;76.88
71791;BME280;59638;52.126;5.434;2023-05-08T12:47:51;102200.72;;;21.48;74.00
71791;BME280;59638;52.126;5.434;2023-05-08T12:50:18;102195.28;;;22.10;75.07
71791;BME280;59638;52.126;5.434;2023-05-08T12:52:50;102188.66;;;22.35;70.82
71791;BME280;59638;52.126;5.434;2023-05-08T12:57:49;102181.13;;;22.31;71.23
71791;BME280;59638;52.126;5.434;2023-05-08T13:00:17;102186.19;;;22.63;70.18
71791;BME280;59638;52.126;5.434;2023-05-08T13:02:53;102179.63;;;22.66;68.60
71791;BME280;59638;52.126;5.434;2023-05-08T13:05:22;102172.22;;;22.15;69.33
71791;BME280;59638;52.126;5.434;2023-05-08T13:07:49;102173.75;;;21.64;71.84
71791;BME280;59638;52.126;5.434;2023-05-08T13:10:17;102170.34;;;21.70;71.06
71791;BME280;59638;52.126;5.434;2023-05-08T13:12:50;102173.19;;;21.45;70.99
71791;BME280;59638;52.126;5.434;2023-05-08T13:15:17;102174.56;;;21.41;74.87
71791;BME280;59638;52.126;5.434;2023-05-08T13:17:43;102169.19;;;21.41;71.25
71791;BME280;59638;52.126;5.434;2023-05-08T13:20:10;102165.38;;;21.59;70.55
71791;BME280;59638;52.126;5.434;2023-05-08T13:22:37;102164.41;;;21.52;72.08
71791;BME280;59638;52.126;5.434;2023-05-08T13:25:03;102175.06;;;21.68;73.63
71791;BME280;59638;52.126;5.434;2023-05-08T13:27:30;102167.00;;;21.91;72.99
71791;BME280;59638;52.126;5.434;2023-05-08T13:29:56;102167.91;;;21.83;70.93
71791;BME280;59638;52.126;5.434;2023-05-08T13:32:23;102162.16;;;21.63;71.56
71791;BME280;59638;52.126;5.434;2023-05-08T13:34:49;102167.03;;;21.37;70.62
71791;BME280;59638;52.126;5.434;2023-05-08T13:37:20;102163.19;;;21.31;71.75
71791;BME280;59638;52.126;5.434;2023-05-08T13:39:46;102158.13;;;21.36;73.02
71791;BME280;59638;52.126;5.434;2023-05-08T13:42:13;102151.13;;;21.27;72.72
71791;BME280;59638;52.126;5.434;2023-05-08T13:44:39;102160.25;;;21.10;71.98